sensor_id;sensor_type;location;lat;lon;timestamp;P1;durP1;ratioP1;P2;durP2;ratioP2
60969;SDS011;46841;48.938;9.502;2023-01-13T00:00:30;2.83;;;1.40;;
60969;SDS011;46841;48.938;9.502;2023-01-13T00:03:46;6.53;;;1.75;;
60969;SDS011;46841;48.938;9.502;2023-01-13T00:06:22;6.80;;;1.50;;
60969;SDS011;46841;48.938;9.502;2023-01-13T00:08:50;6.43;;;1.52;;
60969;SDS011;46841;48.938;9.502;2023-01-13T00:11:18;2.55;;;1.45;;
60969;SDS011;46841;48.938;9.502;2023-01-13T00:13:45;5.72;;;1.20;;
60969;SDS011;46841;48.938;9.502;2023-01-13T00:16:13;5.00;;;1.48;;
60969;SDS011;46841;48.938;9.502;2023-01-13T00:18:44;2.58;;;1.15;;
60969;SDS011;46841;48.938;9.502;2023-01-13T00:21:26;1.98;;;1.20;;
60969;SDS011;46841;48.938;9.502;2023-01-13T00:24:00;6.18;;;1.63;;
60969;SDS011;46841;48.938;9.502;2023-01-13T00:26:50;7.30;;;1.63;;
60969;SDS011;46841;48.938;9.502;2023-01-13T00:30:10;4.28;;;1.38;;
60969;SDS011;46841;48.938;9.502;2023-01-13T00:33:35;2.92;;;1.50;;
60969;SDS011;46841;48.938;9.502;2023-01-13T00:36:58;4.40;;;1.50;;
60969;SDS011;46841;48.938;9.502;2023-01-13T00:40:21;4.47;;;2.00;;
60969;SDS011;46841;48.938;9.502;2023-01-13T00:43:45;5.80;;;1.38;;
60969;SDS011;46841;48.938;9.502;2023-01-13T00:46:16;1.77;;;1.20;;
60969;SDS011;46841;48.938;9.502;2023-01-13T00:49:28;3.63;;;1.60;;
60969;SDS011;46841;48.938;9.502;2023-01-13T00:52:52;8.50;;;1.48;;
60969;SDS011;46841;48.938;9.502;2023-01-13T00:56:22;5.50;;;2.00;;
60969;SDS011;46841;48.938;9.502;2023-01-13T00:59:31;4.75;;;1.20;;
60969;SDS011;46841;48.938;9.502;2023-01-13T01:02:46;1.88;;;1.40;;
60969;SDS011;46841;48.938;9.502;2023-01-13T01:05:37;3.33;;;1.20;;
60969;SDS011;46841;48.938;9.502;2023-01-13T01:08:05;1.92;;;1.20;;
60969;SDS011;46841;48.938;9.502;2023-01-13T01:11:06;2.88;;;1.42;;
60969;SDS011;46841;48.938;9.502;2023-01-13T01:14:29;1.67;;;1.10;;
60969;SDS011;46841;48.938;9.502;2023-01-13T01:17:48;4.20;;;1.38;;
60969;SDS011;46841;48.938;9.502;2023-01-13T01:21:01;3.00;;;1.42;;
60969;SDS011;46841;48.938;9.502;2023-01-13T01:23:28;3.28;;;1.30;;
60969;SDS011;46841;48.938;9.502;2023-01-13T01:25:59;7.50;;;1.50;;
60969;SDS011;46841;48.938;9.502;2023-01-13T01:28:29;3.00;;;1.13;;
60969;SDS011;46841;48.938;9.502;2023-01-13T01:31:39;5.70;;;1.75;;
60969;SDS011;46841;48.938;9.502;2023-01-13T01:34:04;3.03;;;1.30;;
60969;SDS011;46841;48.938;9.502;2023-01-13T01:36:30;5.90;;;1.50;;
60969;SDS011;46841;48.938;9.502;2023-01-13T01:39:10;1.60;;;1.10;;
60969;SDS011;46841;48.938;9.502;2023-01-13T01:41:36;4.30;;;1.13;;
60969;SDS011;46841;48.938;9.502;2023-01-13T01:44:07;4.88;;;1.30;;
60969;SDS011;46841;48.938;9.502;2023-01-13T01:47:07;1.58;;;1.30;;
60969;SDS011;46841;48.938;9.502;2023-01-13T01:49:37;2.15;;;1.30;;
60969;SDS011;46841;48.938;9.502;2023-01-13T01:52:08;3.35;;;1.70;;
60969;SDS011;46841;48.938;9.502;2023-01-13T01:54:51;1.40;;;1.30;;
60969;SDS011;46841;48.938;9.502;2023-01-13T02:00:07;2.67;;;1.35;;
60969;SDS011;46841;48.938;9.502;2023-01-13T02:02:38;3.92;;;1.40;;
60969;SDS011;46841;48.938;9.502;2023-01-13T02:05:06;1.40;;;1.13;;
60969;SDS011;46841;48.938;9.502;2023-01-13T02:07:39;4.63;;;1.55;;
60969;SDS011;46841;48.938;9.502;2023-01-13T02:10:08;3.58;;;1.38;;
60969;SDS011;46841;48.938;9.502;2023-01-13T02:12:36;1.20;;;1.10;;
60969;SDS011;46841;48.938;9.502;2023-01-13T02:15:12;4.93;;;1.25;;
60969;SDS011;46841;48.938;9.502;2023-01-13T02:29:58;1.75;;;1.02;;
60969;SDS011;46841;48.938;9.502;2023-01-13T02:35:43;3.28;;;1.40;;
60969;SDS011;46841;48.938;9.502;2023-01-13T02:38:25;3.00;;;1.10;;
60969;SDS011;46841;48.938;9.502;2023-01-13T02:40:56;5.05;;;1.40;;
60969;SDS011;46841;48.938;9.502;2023-01-13T02:43:47;3.15;;;1.20;;
60969;SDS011;46841;48.938;9.502;2023-01-13T02:46:36;3.13;;;1.30;;
60969;SDS011;46841;48.938;9.502;2023-01-13T02:49:07;1.80;;;1.20;;
60969;SDS011;46841;48.938;9.502;2023-01-13T02:51:37;5.03;;;1.30;;
60969;SDS011;46841;48.938;9.502;2023-01-13T02:54:09;1.33;;;1.15;;
60969;SDS011;46841;48.938;9.502;2023-01-13T02:56:45;5.60;;;1.35;;
60969;SDS011;46841;48.938;9.502;2023-01-13T02:59:14;4.30;;;1.48;;
60969;SDS011;46841;48.938;9.502;2023-01-13T03:01:41;3.17;;;1.20;;
60969;SDS011;46841;48.938;9.502;2023-01-13T03:04:13;3.33;;;1.30;;
60969;SDS011;46841;48.938;9.502;2023-01-13T03:07:05;3.92;;;1.30;;
60969;SDS011;46841;48.938;9.502;2023-01-13T03:09:41;2.80;;;1.20;;
60969;SDS011;46841;48.938;9.502;2023-01-13T03:12:20;2.08;;;1.20;;
60969;SDS011;46841;48.938;9.502;2023-01-13T03:14:57;3.30;;;1.40;;
60969;SDS011;46841;48.938;9.502;2023-01-13T03:17:37;2.63;;;1.23;;
60969;SDS011;46841;48.938;9.502;2023-01-13T03:20:24;4.03;;;1.30;;
60969;SDS011;46841;48.938;9.502;2023-01-13T03:25:42;3.33;;;1.30;;
60969;SDS011;46841;48.938;9.502;2023-01-13T03:28:19;2.90;;;1.40;;
60969;SDS011;46841;48.938;9.502;2023-01-13T03:30:51;2.65;;;1.45;;
60969;SDS011;46841;48.938;9.502;2023-01-13T03:33:24;2.22;;;1.27;;
60969;SDS011;46841;48.938;9.502;2023-01-13T03:35:54;3.35;;;1.40;;
60969;SDS011;46841;48.938;9.502;2023-01-13T03:38:32;3.95;;;1.58;;
60969;SDS011;46841;48.938;9.502;2023-01-13T03:41:06;4.53;;;1.23;;
60969;SDS011;46841;48.938;9.502;2023-01-13T03:43:44;2.70;;;1.20;;
60969;SDS011;46841;48.938;9.502;2023-01-13T03:49:15;3.08;;;1.30;;
60969;SDS011;46841;48.938;9.502;2023-01-13T03:51:46;2.20;;;1.25;;
60969;SDS011;46841;48.938;9.502;2023-01-13T03:54:14;4.15;;;1.88;;
60969;SDS011;46841;48.938;9.502;2023-01-13T03:56:44;3.20;;;1.40;;
60969;SDS011;46841;48.938;9.502;2023-01-13T03:59:16;3.97;;;1.25;;
60969;SDS011;46841;48.938;9.502;2023-01-13T04:04:20;3.95;;;1.45;;
60969;SDS011;46841;48.938;9.502;2023-01-13T04:06:54;1.92;;;1.05;;
60969;SDS011;46841;48.938;9.502;2023-01-13T04:09:54;3.08;;;1.23;;
60969;SDS011;46841;48.938;9.502;2023-01-13T04:14:49;1.50;;;1.30;;
60969;SDS011;46841;48.938;9.502;2023-01-13T04:17:16;3.55;;;1.40;;
60969;SDS011;46841;48.938;9.502;2023-01-13T04:19:42;3.42;;;1.30;;
60969;SDS011;46841;48.938;9.502;2023-01-13T04:22:08;3.67;;;1.30;;
60969;SDS011;46841;48.938;9.502;2023-01-13T04:24:33;3.17;;;1.30;;
60969;SDS011;46841;48.938;9.502;2023-01-13T04:27:01;3.72;;;1.50;;
60969;SDS011;46841;48.938;9.502;2023-01-13T04:29:27;2.95;;;1.20;;
60969;SDS011;46841;48.938;9.502;2023-01-13T04:31:52;1.67;;;1.10;;
60969;SDS011;46841;48.938;9.502;2023-01-13T04:34:18;3.45;;;1.05;;
60969;SDS011;46841;48.938;9.502;2023-01-13T04:36:43;3.25;;;1.50;;
60969;SDS011;46841;48.938;9.502;2023-01-13T04:39:09;1.63;;;1.10;;
60969;SDS011;46841;48.938;9.502;2023-01-13T04:41:34;4.00;;;1.20;;
60969;SDS011;46841;48.938;9.502;2023-01-13T04:44:18;1.48;;;1.05;;
60969;SDS011;46841;48.938;9.502;2023-01-13T04:46:44;2.15;;;1.30;;
60969;SDS011;46841;48.938;9.502;2023-01-13T04:49:09;3.65;;;1.27;;
60969;SDS011;46841;48.938;9.502;2023-01-13T04:51:35;4.35;;;1.40;;
60969;SDS011;46841;48.938;9.502;2023-01-13T04:54:00;2.28;;;1.50;;
60969;SDS011;46841;48.938;9.502;2023-01-13T04:56:25;3.80;;;1.48;;
60969;SDS011;46841;48.938;9.502;2023-01-13T04:58:51;3.67;;;1.58;;
60969;SDS011;46841;48.938;9.502;2023-01-13T05:01:16;3.45;;;1.17;;
60969;SDS011;46841;48.938;9.502;2023-01-13T05:03:42;3.78;;;1.50;;
60969;SDS011;46841;48.938;9.502;2023-01-13T05:06:07;2.17;;;1.30;;
60969;SDS011;46841;48.938;9.502;2023-01-13T05:08:32;1.75;;;1.30;;
60969;SDS011;46841;48.938;9.502;2023-01-13T05:11:01;4.28;;;1.40;;
60969;SDS011;46841;48.938;9.502;2023-01-13T05:13:46;4.65;;;1.45;;
60969;SDS011;46841;48.938;9.502;2023-01-13T05:16:30;2.75;;;1.20;;
60969;SDS011;46841;48.938;9.502;2023-01-13T05:19:14;3.00;;;1.25;;
60969;SDS011;46841;48.938;9.502;2023-01-13T05:21:39;3.53;;;1.30;;
60969;SDS011;46841;48.938;9.502;2023-01-13T05:24:23;2.80;;;1.40;;
60969;SDS011;46841;48.938;9.502;2023-01-13T05:27:07;3.15;;;1.25;;
60969;SDS011;46841;48.938;9.502;2023-01-13T05:29:32;1.73;;;1.20;;
60969;SDS011;46841;48.938;9.502;2023-01-13T05:31:58;4.32;;;1.30;;
60969;SDS011;46841;48.938;9.502;2023-01-13T05:34:26;1.70;;;1.10;;
60969;SDS011;46841;48.938;9.502;2023-01-13T05:36:52;2.80;;;1.35;;
60969;SDS011;46841;48.938;9.502;2023-01-13T05:39:17;1.83;;;1.17;;
60969;SDS011;46841;48.938;9.502;2023-01-13T05:41:43;1.88;;;1.20;;
60969;SDS011;46841;48.938;9.502;2023-01-13T05:44:27;2.38;;;1.20;;
60969;SDS011;46841;48.938;9.502;2023-01-13T05:46:52;1.92;;;1.20;;
60969;SDS011;46841;48.938;9.502;2023-01-13T05:49:18;1.90;;;1.20;;
60969;SDS011;46841;48.938;9.502;2023-01-13T05:51:43;1.52;;;1.05;;
60969;SDS011;46841;48.938;9.502;2023-01-13T05:54:08;3.28;;;1.23;;
60969;SDS011;46841;48.938;9.502;2023-01-13T05:56:38;1.88;;;1.20;;
60969;SDS011;46841;48.938;9.502;2023-01-13T05:59:04;1.45;;;1.00;;
60969;SDS011;46841;48.938;9.502;2023-01-13T06:01:29;3.63;;;1.30;;
60969;SDS011;46841;48.938;9.502;2023-01-13T06:03:55;1.63;;;1.10;;
60969;SDS011;46841;48.938;9.502;2023-01-13T06:06:20;2.88;;;1.23;;
60969;SDS011;46841;48.938;9.502;2023-01-13T06:08:46;3.53;;;1.30;;
60969;SDS011;46841;48.938;9.502;2023-01-13T06:11:11;2.72;;;1.20;;
60969;SDS011;46841;48.938;9.502;2023-01-13T06:13:37;2.78;;;1.15;;
60969;SDS011;46841;48.938;9.502;2023-01-13T06:16:02;2.42;;;1.20;;
60969;SDS011;46841;48.938;9.502;2023-01-13T06:18:28;2.35;;;1.25;;
60969;SDS011;46841;48.938;9.502;2023-01-13T06:20:53;1.63;;;1.10;;
60969;SDS011;46841;48.938;9.502;2023-01-13T06:23:19;1.77;;;1.30;;
60969;SDS011;46841;48.938;9.502;2023-01-13T06:28:10;1.77;;;1.10;;
60969;SDS011;46841;48.938;9.502;2023-01-13T06:30:37;1.17;;;1.00;;
60969;SDS011;46841;48.938;9.502;2023-01-13T06:33:08;1.33;;;1.20;;
60969;SDS011;46841;48.938;9.502;2023-01-13T06:35:37;0.90;;;0.90;;
60969;SDS011;46841;48.938;9.502;2023-01-13T06:38:06;2.20;;;1.10;;
60969;SDS011;46841;48.938;9.502;2023-01-13T06:40:35;2.15;;;1.10;;
60969;SDS011;46841;48.938;9.502;2023-01-13T06:43:01;1.80;;;1.20;;
60969;SDS011;46841;48.938;9.502;2023-01-13T06:45:40;1.92;;;1.10;;
60969;SDS011;46841;48.938;9.502;2023-01-13T06:48:09;1.33;;;1.08;;
60969;SDS011;46841;48.938;9.502;2023-01-13T06:50:34;1.95;;;1.08;;
60969;SDS011;46841;48.938;9.502;2023-01-13T06:53:01;2.05;;;1.30;;
60969;SDS011;46841;48.938;9.502;2023-01-13T06:55:27;1.42;;;0.95;;
60969;SDS011;46841;48.938;9.502;2023-01-13T06:57:53;3.53;;;1.20;;
60969;SDS011;46841;48.938;9.502;2023-01-13T07:02:46;2.13;;;1.38;;
60969;SDS011;46841;48.938;9.502;2023-01-13T07:05:12;3.42;;;1.10;;
60969;SDS011;46841;48.938;9.502;2023-01-13T07:07:37;1.98;;;1.10;;
60969;SDS011;46841;48.938;9.502;2023-01-13T07:10:04;1.25;;;1.00;;
60969;SDS011;46841;48.938;9.502;2023-01-13T07:12:29;4.63;;;1.10;;
60969;SDS011;46841;48.938;9.502;2023-01-13T07:15:17;1.45;;;1.10;;
60969;SDS011;46841;48.938;9.502;2023-01-13T07:17:43;2.30;;;1.02;;
60969;SDS011;46841;48.938;9.502;2023-01-13T07:20:08;2.78;;;0.93;;
60969;SDS011;46841;48.938;9.502;2023-01-13T07:22:34;1.73;;;1.00;;
60969;SDS011;46841;48.938;9.502;2023-01-13T07:25:00;1.38;;;1.10;;
60969;SDS011;46841;48.938;9.502;2023-01-13T07:27:28;2.45;;;1.42;;
60969;SDS011;46841;48.938;9.502;2023-01-13T07:29:53;1.77;;;1.15;;
60969;SDS011;46841;48.938;9.502;2023-01-13T07:32:19;2.70;;;1.05;;
60969;SDS011;46841;48.938;9.502;2023-01-13T07:34:44;1.52;;;1.10;;
60969;SDS011;46841;48.938;9.502;2023-01-13T07:37:09;2.05;;;1.25;;
60969;SDS011;46841;48.938;9.502;2023-01-13T07:39:35;1.52;;;1.13;;
60969;SDS011;46841;48.938;9.502;2023-01-13T07:42:00;1.63;;;1.10;;
60969;SDS011;46841;48.938;9.502;2023-01-13T07:44:44;0.93;;;0.90;;
60969;SDS011;46841;48.938;9.502;2023-01-13T07:47:10;1.83;;;1.10;;
60969;SDS011;46841;48.938;9.502;2023-01-13T07:49:36;1.48;;;1.23;;
60969;SDS011;46841;48.938;9.502;2023-01-13T07:52:01;1.75;;;1.00;;
60969;SDS011;46841;48.938;9.502;2023-01-13T07:54:27;0.90;;;0.90;;
60969;SDS011;46841;48.938;9.502;2023-01-13T07:56:54;0.90;;;0.90;;
60969;SDS011;46841;48.938;9.502;2023-01-13T07:59:20;1.30;;;1.13;;
60969;SDS011;46841;48.938;9.502;2023-01-13T08:01:46;3.95;;;1.35;;
60969;SDS011;46841;48.938;9.502;2023-01-13T08:04:12;1.98;;;1.00;;
60969;SDS011;46841;48.938;9.502;2023-01-13T08:06:40;1.10;;;0.95;;
60969;SDS011;46841;48.938;9.502;2023-01-13T08:09:07;2.58;;;1.15;;
60969;SDS011;46841;48.938;9.502;2023-01-13T08:11:32;3.87;;;1.20;;
60969;SDS011;46841;48.938;9.502;2023-01-13T08:13:59;1.58;;;1.10;;
60969;SDS011;46841;48.938;9.502;2023-01-13T08:16:24;2.53;;;1.20;;
60969;SDS011;46841;48.938;9.502;2023-01-13T08:18:50;2.47;;;1.20;;
60969;SDS011;46841;48.938;9.502;2023-01-13T08:21:15;1.33;;;1.23;;
60969;SDS011;46841;48.938;9.502;2023-01-13T08:23:41;2.72;;;1.30;;
60969;SDS011;46841;48.938;9.502;2023-01-13T08:26:09;2.22;;;1.40;;
60969;SDS011;46841;48.938;9.502;2023-01-13T08:28:37;2.03;;;1.17;;
60969;SDS011;46841;48.938;9.502;2023-01-13T08:31:07;2.50;;;1.65;;
60969;SDS011;46841;48.938;9.502;2023-01-13T08:33:35;1.85;;;1.30;;
60969;SDS011;46841;48.938;9.502;2023-01-13T08:36:05;2.40;;;1.60;;
60969;SDS011;46841;48.938;9.502;2023-01-13T08:38:33;2.17;;;1.48;;
60969;SDS011;46841;48.938;9.502;2023-01-13T08:40:59;4.93;;;1.60;;
60969;SDS011;46841;48.938;9.502;2023-01-13T08:43:25;2.67;;;1.30;;
60969;SDS011;46841;48.938;9.502;2023-01-13T08:45:56;4.10;;;2.20;;
60969;SDS011;46841;48.938;9.502;2023-01-13T08:48:22;4.10;;;1.90;;
60969;SDS011;46841;48.938;9.502;2023-01-13T08:50:48;2.88;;;1.70;;
60969;SDS011;46841;48.938;9.502;2023-01-13T08:53:13;8.05;;;1.70;;
60969;SDS011;46841;48.938;9.502;2023-01-13T08:55:39;2.55;;;1.42;;
60969;SDS011;46841;48.938;9.502;2023-01-13T08:58:04;1.20;;;1.17;;
60969;SDS011;46841;48.938;9.502;2023-01-13T09:00:30;2.47;;;1.45;;
60969;SDS011;46841;48.938;9.502;2023-01-13T09:02:55;1.42;;;1.10;;
60969;SDS011;46841;48.938;9.502;2023-01-13T09:05:22;2.85;;;1.40;;
60969;SDS011;46841;48.938;9.502;2023-01-13T09:07:48;3.10;;;1.48;;
60969;SDS011;46841;48.938;9.502;2023-01-13T09:10:13;3.42;;;1.27;;
60969;SDS011;46841;48.938;9.502;2023-01-13T09:12:39;1.88;;;1.25;;
60969;SDS011;46841;48.938;9.502;2023-01-13T09:15:23;1.30;;;1.20;;
60969;SDS011;46841;48.938;9.502;2023-01-13T09:17:48;1.80;;;1.23;;
60969;SDS011;46841;48.938;9.502;2023-01-13T09:20:14;1.30;;;1.10;;
60969;SDS011;46841;48.938;9.502;2023-01-13T09:22:40;2.47;;;1.33;;
60969;SDS011;46841;48.938;9.502;2023-01-13T09:25:05;4.43;;;1.48;;
60969;SDS011;46841;48.938;9.502;2023-01-13T09:27:31;3.17;;;1.33;;
60969;SDS011;46841;48.938;9.502;2023-01-13T09:29:56;2.10;;;1.55;;
60969;SDS011;46841;48.938;9.502;2023-01-13T09:32:22;2.47;;;1.10;;
60969;SDS011;46841;48.938;9.502;2023-01-13T09:34:47;2.63;;;1.23;;
60969;SDS011;46841;48.938;9.502;2023-01-13T09:37:29;3.33;;;1.40;;
60969;SDS011;46841;48.938;9.502;2023-01-13T09:40:00;2.65;;;1.40;;
60969;SDS011;46841;48.938;9.502;2023-01-13T09:42:36;2.00;;;1.47;;
60969;SDS011;46841;48.938;9.502;2023-01-13T09:48:15;3.17;;;1.48;;
60969;SDS011;46841;48.938;9.502;2023-01-13T09:50:56;2.20;;;1.55;;
60969;SDS011;46841;48.938;9.502;2023-01-13T09:53:25;1.92;;;1.50;;
60969;SDS011;46841;48.938;9.502;2023-01-13T09:55:56;3.67;;;1.90;;
60969;SDS011;46841;48.938;9.502;2023-01-13T09:58:22;5.20;;;1.80;;
60969;SDS011;46841;48.938;9.502;2023-01-13T10:03:46;5.97;;;1.95;;
60969;SDS011;46841;48.938;9.502;2023-01-13T10:09:03;2.83;;;1.63;;
60969;SDS011;46841;48.938;9.502;2023-01-13T10:11:31;4.03;;;1.50;;
60969;SDS011;46841;48.938;9.502;2023-01-13T10:14:25;2.88;;;1.40;;
60969;SDS011;46841;48.938;9.502;2023-01-13T10:17:02;3.45;;;1.42;;
60969;SDS011;46841;48.938;9.502;2023-01-13T10:22:53;3.03;;;1.40;;
60969;SDS011;46841;48.938;9.502;2023-01-13T10:28:01;4.15;;;1.60;;
60969;SDS011;46841;48.938;9.502;2023-01-13T10:30:33;3.35;;;1.52;;
60969;SDS011;46841;48.938;9.502;2023-01-13T10:33:04;5.93;;;1.90;;
60969;SDS011;46841;48.938;9.502;2023-01-13T10:43:36;7.22;;;1.50;;
60969;SDS011;46841;48.938;9.502;2023-01-13T10:46:03;4.15;;;1.50;;
60969;SDS011;46841;48.938;9.502;2023-01-13T10:53:43;4.38;;;1.60;;
60969;SDS011;46841;48.938;9.502;2023-01-13T10:56:16;6.13;;;1.60;;
60969;SDS011;46841;48.938;9.502;2023-01-13T11:01:09;5.35;;;1.70;;
60969;SDS011;46841;48.938;9.502;2023-01-13T11:03:50;4.20;;;1.52;;
60969;SDS011;46841;48.938;9.502;2023-01-13T11:06:34;6.55;;;1.83;;
60969;SDS011;46841;48.938;9.502;2023-01-13T11:09:01;6.32;;;1.95;;
60969;SDS011;46841;48.938;9.502;2023-01-13T11:11:37;6.00;;;1.98;;
60969;SDS011;46841;48.938;9.502;2023-01-13T11:14:46;5.32;;;1.80;;
60969;SDS011;46841;48.938;9.502;2023-01-13T11:17:17;6.15;;;1.92;;
60969;SDS011;46841;48.938;9.502;2023-01-13T11:22:56;7.68;;;1.98;;
60969;SDS011;46841;48.938;9.502;2023-01-13T11:25:26;5.97;;;2.22;;
60969;SDS011;46841;48.938;9.502;2023-01-13T11:27:58;4.90;;;2.10;;
60969;SDS011;46841;48.938;9.502;2023-01-13T11:35:46;3.42;;;1.40;;
60969;SDS011;46841;48.938;9.502;2023-01-13T11:38:52;4.18;;;1.80;;
60969;SDS011;46841;48.938;9.502;2023-01-13T11:44:09;3.38;;;1.38;;
60969;SDS011;46841;48.938;9.502;2023-01-13T11:46:42;4.65;;;1.40;;
60969;SDS011;46841;48.938;9.502;2023-01-13T11:49:27;3.95;;;1.77;;
60969;SDS011;46841;48.938;9.502;2023-01-13T11:57:19;3.05;;;1.35;;
60969;SDS011;46841;48.938;9.502;2023-01-13T12:16:51;4.97;;;1.90;;
60969;SDS011;46841;48.938;9.502;2023-01-13T12:19:28;7.55;;;2.15;;
60969;SDS011;46841;48.938;9.502;2023-01-13T12:27:36;5.90;;;1.98;;
60969;SDS011;46841;48.938;9.502;2023-01-13T12:36:39;7.95;;;1.90;;
60969;SDS011;46841;48.938;9.502;2023-01-13T12:39:01;5.35;;;1.90;;
60969;SDS011;46841;48.938;9.502;2023-01-13T12:44:28;7.07;;;1.95;;
60969;SDS011;46841;48.938;9.502;2023-01-13T12:46:55;5.15;;;1.75;;
60969;SDS011;46841;48.938;9.502;2023-01-13T12:56:55;10.05;;;1.90;;
60969;SDS011;46841;48.938;9.502;2023-01-13T13:01:51;8.20;;;2.13;;
60969;SDS011;46841;48.938;9.502;2023-01-13T13:07:30;7.60;;;2.22;;
60969;SDS011;46841;48.938;9.502;2023-01-13T13:10:26;7.60;;;2.00;;
60969;SDS011;46841;48.938;9.502;2023-01-13T13:12:52;6.45;;;1.75;;
60969;SDS011;46841;48.938;9.502;2023-01-13T13:15:41;6.80;;;1.90;;
60969;SDS011;46841;48.938;9.502;2023-01-13T13:28:47;4.75;;;2.00;;
60969;SDS011;46841;48.938;9.502;2023-01-13T13:31:23;4.65;;;1.67;;
60969;SDS011;46841;48.938;9.502;2023-01-13T13:40:19;5.95;;;2.50;;
60969;SDS011;46841;48.938;9.502;2023-01-13T13:43:31;5.43;;;2.30;;
60969;SDS011;46841;48.938;9.502;2023-01-13T13:46:30;5.07;;;2.40;;
60969;SDS011;46841;48.938;9.502;2023-01-13T13:49:17;7.07;;;2.20;;
60969;SDS011;46841;48.938;9.502;2023-01-13T13:54:22;7.80;;;1.95;;
60969;SDS011;46841;48.938;9.502;2023-01-13T13:56:48;6.75;;;2.00;;
60969;SDS011;46841;48.938;9.502;2023-01-13T13:59:17;6.18;;;1.80;;
60969;SDS011;46841;48.938;9.502;2023-01-13T14:01:49;5.82;;;2.00;;
60969;SDS011;46841;48.938;9.502;2023-01-13T14:04:24;6.18;;;1.83;;
60969;SDS011;46841;48.938;9.502;2023-01-13T14:06:54;5.45;;;1.80;;
60969;SDS011;46841;48.938;9.502;2023-01-13T14:09:22;11.10;;;2.30;;
60969;SDS011;46841;48.938;9.502;2023-01-13T14:14:23;8.52;;;2.20;;
60969;SDS011;46841;48.938;9.502;2023-01-13T14:16:49;7.57;;;1.95;;
60969;SDS011;46841;48.938;9.502;2023-01-13T14:19:49;10.85;;;1.90;;
60969;SDS011;46841;48.938;9.502;2023-01-13T14:22:14;7.90;;;2.10;;
60969;SDS011;46841;48.938;9.502;2023-01-13T14:24:44;10.25;;;2.47;;
60969;SDS011;46841;48.938;9.502;2023-01-13T14:27:19;9.98;;;2.05;;
60969;SDS011;46841;48.938;9.502;2023-01-13T14:29:44;7.25;;;2.50;;
60969;SDS011;46841;48.938;9.502;2023-01-13T14:32:11;13.95;;;2.55;;
60969;SDS011;46841;48.938;9.502;2023-01-13T14:34:41;10.77;;;2.50;;
60969;SDS011;46841;48.938;9.502;2023-01-13T14:43:00;7.53;;;3.50;;
60969;SDS011;46841;48.938;9.502;2023-01-13T14:45:27;12.98;;;2.80;;
60969;SDS011;46841;48.938;9.502;2023-01-13T14:47:54;8.77;;;2.50;;
60969;SDS011;46841;48.938;9.502;2023-01-13T14:50:23;10.30;;;2.35;;
60969;SDS011;46841;48.938;9.502;2023-01-13T14:52:55;5.25;;;1.90;;
60969;SDS011;46841;48.938;9.502;2023-01-13T14:57:47;4.93;;;1.60;;
60969;SDS011;46841;48.938;9.502;2023-01-13T15:07:47;4.07;;;1.70;;
60969;SDS011;46841;48.938;9.502;2023-01-13T15:10:14;4.43;;;1.67;;
60969;SDS011;46841;48.938;9.502;2023-01-13T15:12:42;3.40;;;1.55;;
60969;SDS011;46841;48.938;9.502;2023-01-13T15:17:49;3.22;;;1.38;;
60969;SDS011;46841;48.938;9.502;2023-01-13T15:20:15;2.17;;;1.50;;
60969;SDS011;46841;48.938;9.502;2023-01-13T15:22:43;6.28;;;2.28;;
60969;SDS011;46841;48.938;9.502;2023-01-13T15:25:08;3.80;;;1.83;;
60969;SDS011;46841;48.938;9.502;2023-01-13T15:27:35;2.97;;;1.60;;
60969;SDS011;46841;48.938;9.502;2023-01-13T15:30:03;2.20;;;1.40;;
60969;SDS011;46841;48.938;9.502;2023-01-13T15:32:38;2.75;;;1.52;;
60969;SDS011;46841;48.938;9.502;2023-01-13T15:35:03;4.15;;;1.60;;
60969;SDS011;46841;48.938;9.502;2023-01-13T15:37:29;4.13;;;2.00;;
60969;SDS011;46841;48.938;9.502;2023-01-13T15:39:54;6.53;;;1.95;;
60969;SDS011;46841;48.938;9.502;2023-01-13T15:42:20;4.75;;;1.80;;
60969;SDS011;46841;48.938;9.502;2023-01-13T15:45:04;3.72;;;1.60;;
60969;SDS011;46841;48.938;9.502;2023-01-13T15:47:48;4.38;;;1.95;;
60969;SDS011;46841;48.938;9.502;2023-01-13T15:50:26;4.97;;;1.77;;
60969;SDS011;46841;48.938;9.502;2023-01-13T15:52:53;4.03;;;1.47;;
60969;SDS011;46841;48.938;9.502;2023-01-13T15:55:18;2.65;;;1.50;;
60969;SDS011;46841;48.938;9.502;2023-01-13T15:57:45;5.55;;;2.33;;
60969;SDS011;46841;48.938;9.502;2023-01-13T16:00:18;3.72;;;1.90;;
60969;SDS011;46841;48.938;9.502;2023-01-13T16:02:45;2.17;;;1.60;;
60969;SDS011;46841;48.938;9.502;2023-01-13T16:05:11;3.40;;;1.90;;
60969;SDS011;46841;48.938;9.502;2023-01-13T16:07:37;4.80;;;2.08;;
60969;SDS011;46841;48.938;9.502;2023-01-13T16:10:10;4.03;;;2.10;;
60969;SDS011;46841;48.938;9.502;2023-01-13T16:12:40;2.55;;;1.70;;
60969;SDS011;46841;48.938;9.502;2023-01-13T16:15:06;4.32;;;2.00;;
60969;SDS011;46841;48.938;9.502;2023-01-13T16:17:32;5.53;;;1.70;;
60969;SDS011;46841;48.938;9.502;2023-01-13T16:19:59;2.47;;;1.75;;
60969;SDS011;46841;48.938;9.502;2023-01-13T16:22:24;6.13;;;2.08;;
60969;SDS011;46841;48.938;9.502;2023-01-13T16:24:50;5.32;;;2.00;;
60969;SDS011;46841;48.938;9.502;2023-01-13T16:27:20;3.70;;;1.63;;
60969;SDS011;46841;48.938;9.502;2023-01-13T16:29:47;2.83;;;1.85;;
60969;SDS011;46841;48.938;9.502;2023-01-13T16:32:13;3.13;;;1.80;;
60969;SDS011;46841;48.938;9.502;2023-01-13T16:34:39;4.28;;;1.92;;
60969;SDS011;46841;48.938;9.502;2023-01-13T16:37:05;4.82;;;2.05;;
60969;SDS011;46841;48.938;9.502;2023-01-13T16:39:46;6.28;;;2.17;;
60969;SDS011;46841;48.938;9.502;2023-01-13T16:42:12;5.33;;;2.47;;
60969;SDS011;46841;48.938;9.502;2023-01-13T16:44:38;6.13;;;2.63;;
60969;SDS011;46841;48.938;9.502;2023-01-13T16:47:04;7.90;;;2.75;;
60969;SDS011;46841;48.938;9.502;2023-01-13T16:49:30;7.15;;;2.90;;
60969;SDS011;46841;48.938;9.502;2023-01-13T16:51:56;6.57;;;2.30;;
60969;SDS011;46841;48.938;9.502;2023-01-13T16:54:21;7.80;;;3.00;;
60969;SDS011;46841;48.938;9.502;2023-01-13T16:56:46;6.32;;;2.33;;
60969;SDS011;46841;48.938;9.502;2023-01-13T16:59:12;8.13;;;2.45;;
60969;SDS011;46841;48.938;9.502;2023-01-13T17:01:39;9.43;;;3.17;;
60969;SDS011;46841;48.938;9.502;2023-01-13T17:04:11;5.63;;;2.40;;
60969;SDS011;46841;48.938;9.502;2023-01-13T17:09:30;9.40;;;3.10;;
60969;SDS011;46841;48.938;9.502;2023-01-13T17:11:56;6.40;;;2.80;;
60969;SDS011;46841;48.938;9.502;2023-01-13T17:14:22;9.15;;;2.72;;
60969;SDS011;46841;48.938;9.502;2023-01-13T17:16:49;7.50;;;2.95;;
60969;SDS011;46841;48.938;9.502;2023-01-13T17:19:16;10.15;;;3.30;;
60969;SDS011;46841;48.938;9.502;2023-01-13T17:21:42;12.10;;;3.47;;
60969;SDS011;46841;48.938;9.502;2023-01-13T17:24:08;8.93;;;3.38;;
60969;SDS011;46841;48.938;9.502;2023-01-13T17:26:46;11.50;;;4.43;;
60969;SDS011;46841;48.938;9.502;2023-01-13T17:29:14;9.27;;;4.45;;
60969;SDS011;46841;48.938;9.502;2023-01-13T17:31:39;14.07;;;5.40;;
60969;SDS011;46841;48.938;9.502;2023-01-13T17:34:05;10.90;;;5.43;;
60969;SDS011;46841;48.938;9.502;2023-01-13T17:36:31;11.05;;;5.70;;
60969;SDS011;46841;48.938;9.502;2023-01-13T17:38:57;9.77;;;5.33;;
60969;SDS011;46841;48.938;9.502;2023-01-13T17:41:23;21.80;;;9.73;;
60969;SDS011;46841;48.938;9.502;2023-01-13T17:43:50;21.50;;;8.18;;
60969;SDS011;46841;48.938;9.502;2023-01-13T17:46:16;12.35;;;5.82;;
60969;SDS011;46841;48.938;9.502;2023-01-13T17:48:43;12.85;;;4.85;;
60969;SDS011;46841;48.938;9.502;2023-01-13T17:51:12;9.20;;;3.60;;
60969;SDS011;46841;48.938;9.502;2023-01-13T17:53:38;15.60;;;5.70;;
60969;SDS011;46841;48.938;9.502;2023-01-13T17:56:07;13.63;;;6.35;;
60969;SDS011;46841;48.938;9.502;2023-01-13T17:58:37;11.35;;;5.57;;
60969;SDS011;46841;48.938;9.502;2023-01-13T18:01:08;16.23;;;8.93;;
60969;SDS011;46841;48.938;9.502;2023-01-13T18:03:35;19.85;;;9.35;;
60969;SDS011;46841;48.938;9.502;2023-01-13T18:06:05;19.13;;;8.10;;
60969;SDS011;46841;48.938;9.502;2023-01-13T18:08:33;16.42;;;4.68;;